首页
METAR-TAF:

METAR-TAF

机场 :

马塔维里国际机场

復活節島, 智利

纬度: 27-09S, 经度: 109-25W, 海拔: 51米

当前天气观测

该预报发布于55分钟前的00:00 UTC
风速17节,风向东南
温度 19°C
湿度 64%
气压 1025 hPa
能见度10公里或以上
少量云层高于3000英尺
多云层高于4000英尺

METAR: SCIP 210000Z 14017KT 9999 FEW030 BKN040 19/12 Q1025 NOSIG

时间: 18:55 (00:55 UTC)

预报

该预报发布于2小时和10分钟前的22:45 UTC
预报有效从21日的 00点(UTC)到 22日的 00点(UTC)
风速20节,风向东南
能见度10公里或以上
散云层高于2500英尺
多云层高于4000英尺
成为
从 21日的 05点(UTC)到 21日的 07点(UTC)
风速15节,风向东南
短暂存在
从 21日的 10点(UTC)到 21日的 14点(UTC)
风速20节,风向东南
能見度: 7000
散云层高于1500英尺
多云层高于3000英尺
小阵雨
成为
从 21日的 15点(UTC)到 21日的 17点(UTC)
风速20节,风向东南
短暂存在
从 21日的 19点(UTC)到 22日的 00点(UTC)
能見度: 7000
散云层高于2000英尺
多云层高于3000英尺
小阵雨

TAF: SCIP 202245Z 2100/2200 14020KT 9999 SCT025 BKN040 TN15/2110Z TX22/2120Z BECMG 2105/2107 14015KT TEMPO 2110/2114 14020KT 7000 -SHRA SCT015 BKN030 BECMG 2115/2117 14020KT TEMPO 2119/2200 7000 -SHRA SCT020 BKN030

超过4000个机场的气象观测和天气预报(METAR&TAF报告)。

可查询的气象台以黄色和红色小点在地图上表示。

将鼠标移到小点上方,可查看气象台名称。

然后点击查看天气观测和预报。

如需切换地图:点击带黑十字的绿色按钮放大地图;点击带横线的绿色按钮缩小地图;或者点击绿色箭头查看邻近地区的地图。


METAR-TAF: